Time;durP1;ratioP1;P1;durP2;ratioP2;P2;SDS_P1;SDS_P2;PMS_P1;PMS_P2;Temp;Humidity;BMP_temperature;BMP_pressure;BME280_temperature;BME280_humidity;BME280_pressure;Samples;Min_cycle;Max_cycle;Signal;HPM_P1;HPM_P2
2022/07/25 00:00:58;;;;;;;18.30;8.73;;;;;;;23.88;100.00;94604.91;5017575;28;20420;-92
2022/07/25 00:03:24;;;;;;;11.75;7.68;;;;;;;23.95;100.00;94603.19;5000189;28;20048;-92
2022/07/25 00:05:49;;;;;;;14.98;8.07;;;;;;;23.87;100.00;94606.81;5016482;28;20075;-93
2022/07/25 00:08:15;;;;;;;12.18;7.93;;;;;;;23.73;100.00;94607.25;5016336;28;20411;-92
2022/07/25 00:10:40;;;;;;;12.02;8.07;;;;;;;23.53;100.00;94603.72;5000013;28;20022;-92
2022/07/25 00:13:06;;;;;;;12.88;7.85;;;;;;;23.61;100.00;94599.31;4999837;28;20061;-93
2022/07/25 00:15:31;;;;;;;12.35;8.30;;;;;;;23.57;100.00;94601.88;4999962;28;20032;-92
2022/07/25 00:17:57;;;;;;;12.85;8.20;;;;;;;23.54;100.00;94598.03;5000046;28;20056;-93
2022/07/25 00:20:22;;;;;;;11.32;8.18;;;;;;;23.61;100.00;94600.09;5000117;28;20026;-93
2022/07/25 00:22:48;;;;;;;17.13;8.95;;;;;;;23.57;100.00;94602.69;5000049;28;20129;-93
2022/07/25 00:25:13;;;;;;;16.08;9.20;;;;;;;23.50;100.00;94597.16;5016178;28;20036;-93
2022/07/25 00:27:41;;;;;;;17.63;8.25;;;;;;;23.48;100.00;94594.03;5000163;28;20033;-91
2022/07/25 00:30:07;;;;;;;23.55;9.32;;;;;;;23.60;100.00;94595.88;5000117;28;20022;-92
2022/07/25 00:32:33;;;;;;;17.30;9.15;;;;;;;23.61;100.00;94591.28;5016122;28;20060;-92
2022/07/25 00:34:58;;;;;;;17.63;8.60;;;;;;;23.67;100.00;94589.91;4999818;28;20022;-92
2022/07/25 00:37:23;;;;;;;12.15;7.53;;;;;;;23.70;100.00;94591.91;5015930;28;20032;-91
2022/07/25 00:39:49;;;;;;;12.10;7.82;;;;;;;23.75;100.00;94590.88;5015899;28;20446;-92
2022/07/25 00:42:15;;;;;;;21.85;8.52;;;;;;;23.73;100.00;94583.19;4999742;28;20030;-92
2022/07/25 00:44:40;;;;;;;15.10;8.60;;;;;;;23.60;100.00;94585.19;4999873;28;20331;-91
2022/07/25 00:47:06;;;;;;;18.67;7.53;;;;;;;23.69;100.00;94583.09;4999447;28;20032;-90
2022/07/25 00:49:31;;;;;;;17.50;9.75;;;;;;;23.56;100.00;94585.09;5015665;28;20506;-91
2022/07/25 00:52:00;;;;;;;10.88;8.05;;;;;;;23.48;100.00;94585.25;5028742;28;20026;-91
2022/07/25 00:54:25;;;;;;;12.88;7.97;;;;;;;23.66;100.00;94589.13;5009842;28;20037;-91
2022/07/25 00:56:51;;;;;;;15.85;8.68;;;;;;;23.68;100.00;94586.13;4999786;28;20026;-91
2022/07/25 00:59:17;;;;;;;16.80;8.02;;;;;;;23.58;100.00;94590.06;5018142;28;20029;-91
2022/07/25 01:01:44;;;;;;;11.90;7.88;;;;;;;23.65;100.00;94584.91;5003275;28;20064;-91
2022/07/25 01:04:09;;;;;;;16.92;8.43;;;;;;;23.59;100.00;94578.25;5003206;28;20125;-90
2022/07/25 01:06:35;;;;;;;16.13;8.32;;;;;;;23.56;100.00;94585.09;5019399;28;20427;-90
2022/07/25 01:09:04;;;;;;;16.60;8.40;;;;;;;23.47;100.00;94579.13;5002940;28;20128;-91
2022/07/25 01:11:29;;;;;;;18.25;7.97;;;;;;;23.46;100.00;94574.13;5019295;28;20085;-90
2022/07/25 01:13:55;;;;;;;19.20;8.60;;;;;;;23.33;100.00;94570.75;5019275;28;20029;-91
2022/07/25 01:16:20;;;;;;;10.63;8.05;;;;;;;23.50;100.00;94572.31;5019170;28;20387;-91
2022/07/25 01:18:46;;;;;;;14.55;8.18;;;;;;;23.50;100.00;94575.00;5019336;28;20029;-91
2022/07/25 01:21:13;;;;;;;16.95;8.88;;;;;;;23.39;100.00;94575.50;5019037;28;20057;-93
2022/07/25 01:23:39;;;;;;;18.48;8.82;;;;;;;23.27;100.00;94563.00;5003374;28;20064;-92
2022/07/25 01:26:04;;;;;;;21.60;8.50;;;;;;;23.44;100.00;94571.81;5002816;28;20436;-92
2022/07/25 01:28:30;;;;;;;13.00;8.60;;;;;;;23.33;100.00;94565.41;5019078;28;20026;-93
2022/07/25 01:30:55;;;;;;;18.77;8.98;;;;;;;23.19;100.00;94563.91;5020569;28;20022;-93
2022/07/25 01:33:21;;;;;;;18.08;9.57;;;;;;;23.22;100.00;94565.13;5020288;28;20078;-93
2022/07/25 01:35:47;;;;;;;15.75;8.50;;;;;;;23.08;100.00;94560.16;5020180;28;20025;-92
2022/07/25 01:38:14;;;;;;;12.07;8.05;;;;;;;23.16;100.00;94557.34;5002803;28;20029;-92
2022/07/25 01:40:41;;;;;;;17.77;8.57;;;;;;;23.30;100.00;94562.31;5018985;28;20026;-92
2022/07/25 01:43:06;;;;;;;15.68;9.27;;;;;;;23.38;100.00;94555.25;5002798;28;20029;-92
2022/07/25 01:45:32;;;;;;;18.27;8.32;;;;;;;23.28;100.00;94561.88;5018829;28;20025;-93
2022/07/25 01:47:58;;;;;;;18.70;9.38;;;;;;;23.27;100.00;94556.88;5018837;28;20037;-92
2022/07/25 01:50:24;;;;;;;13.55;8.77;;;;;;;23.19;100.00;94552.44;5018858;28;20431;-92
2022/07/25 01:52:49;;;;;;;16.63;8.40;;;;;;;23.22;100.00;94555.19;5002899;28;20040;-93
2022/07/25 01:55:15;;;;;;;14.90;8.50;;;;;;;23.19;100.00;94555.13;5018595;28;20030;-92
2022/07/25 01:57:41;;;;;;;18.90;8.35;;;;;;;23.21;100.00;94556.31;5002424;28;20432;-93
2022/07/25 02:00:10;;;;;;;18.17;8.35;;;;;;;23.24;100.00;94550.28;5018546;28;20030;-91
2022/07/25 02:02:35;;;;;;;14.20;7.88;;;;;;;23.31;100.00;94555.03;5018586;28;20056;-92
2022/07/25 02:05:01;;;;;;;14.48;9.00;;;;;;;23.15;100.00;94549.69;5018592;28;20021;-92
2022/07/25 02:07:26;;;;;;;17.98;8.73;;;;;;;23.02;100.00;94548.94;5019546;28;20033;-92
2022/07/25 02:09:52;;;;;;;18.58;8.10;;;;;;;22.92;100.00;94552.16;5017459;28;20083;-92
2022/07/25 02:12:17;;;;;;;12.35;8.13;;;;;;;22.93;100.00;94557.13;5019406;28;20033;-91
2022/07/25 02:14:43;;;;;;;14.93;9.20;;;;;;;22.85;100.00;94550.06;5018294;28;20027;-92
2022/07/25 02:17:09;;;;;;;18.42;8.82;;;;;;;22.72;100.00;94544.78;5018125;28;20026;-92
2022/07/25 02:19:35;;;;;;;15.38;8.60;;;;;;;22.77;100.00;94556.31;5018199;28;20513;-92
2022/07/25 02:22:00;;;;;;;12.65;8.65;;;;;;;22.87;100.00;94547.81;5018097;28;20061;-92
2022/07/25 02:24:25;;;;;;;13.63;8.30;;;;;;;23.19;100.00;94549.78;5018015;28;20053;-93
2022/07/25 02:26:51;;;;;;;20.88;8.18;;;;;;;23.30;100.00;94546.25;5017905;28;20030;-90
2022/07/25 02:29:17;;;;;;;15.55;8.65;;;;;;;23.32;100.00;94542.47;5018047;28;20055;-92
2022/07/25 02:31:42;;;;;;;14.15;8.73;;;;;;;23.38;100.00;94546.44;5017986;28;20054;-91
2022/07/25 02:34:07;;;;;;;18.60;8.68;;;;;;;23.46;100.00;94552.75;5018159;28;20076;-92
2022/07/25 02:36:33;;;;;;;15.70;8.88;;;;;;;23.43;100.00;94546.94;5019536;28;20026;-92
2022/07/25 02:38:58;;;;;;;13.50;8.25;;;;;;;23.31;100.00;94547.03;5017854;28;20056;-92
2022/07/25 02:41:24;;;;;;;14.85;8.82;;;;;;;23.41;100.00;94545.75;5017670;28;20057;-92
2022/07/25 02:43:49;;;;;;;15.27;8.70;;;;;;;23.44;100.00;94547.75;5001900;28;20030;-93
2022/07/25 02:46:15;;;;;;;16.70;7.80;;;;;;;23.35;100.00;94547.91;5017639;28;20447;-93
2022/07/25 02:48:40;;;;;;;16.95;9.55;;;;;;;23.26;100.00;94545.41;5001593;28;20028;-91
2022/07/25 02:51:05;;;;;;;18.00;9.27;;;;;;;23.20;100.00;94543.31;5017674;28;20092;-91
2022/07/25 02:53:31;;;;;;;15.25;9.32;;;;;;;23.17;100.00;94542.09;5017550;28;20026;-92
2022/07/25 02:55:56;;;;;;;11.27;8.25;;;;;;;23.06;100.00;94543.72;5017549;28;20022;-92
2022/07/25 02:58:22;;;;;;;13.85;8.25;;;;;;;23.15;100.00;94544.34;5001429;28;20129;-92
2022/07/25 03:04:09;;;;;;;15.63;8.65;;;;;;;23.19;100.00;94536.41;5018505;28;20037;-91
2022/07/25 03:06:35;;;;;;;17.73;9.02;;;;;;;23.18;100.00;94537.53;5001051;28;20030;-92
2022/07/25 03:09:00;;;;;;;16.40;8.02;;;;;;;23.03;100.00;94537.19;5017244;28;20424;-91
2022/07/25 03:11:26;;;;;;;15.88;9.07;;;;;;;22.90;100.00;94539.13;5001026;28;20335;-92
2022/07/25 03:13:53;;;;;;;18.25;8.25;;;;;;;22.73;100.00;94540.19;5017045;28;20375;-92
2022/07/25 03:16:19;;;;;;;18.92;8.43;;;;;;;22.79;100.00;94532.72;5017053;28;20388;-92
2022/07/25 03:18:44;;;;;;;23.42;9.07;;;;;;;22.87;100.00;94540.56;5017124;28;20036;-93
2022/07/25 03:21:10;;;;;;;14.25;8.48;;;;;;;22.70;100.00;94539.00;5000347;28;20026;-92
2022/07/25 03:23:35;;;;;;;15.95;8.52;;;;;;;22.68;100.00;94535.91;5016559;28;20030;-92
2022/07/25 03:26:00;;;;;;;19.80;9.10;;;;;;;22.64;100.00;94543.00;5000781;28;20036;-92
2022/07/25 03:28:26;;;;;;;16.65;8.75;;;;;;;22.62;100.00;94534.56;5029875;28;20036;-92
2022/07/25 03:30:51;;;;;;;16.92;8.63;;;;;;;22.73;100.00;94540.97;5038003;28;20064;-93
2022/07/25 03:33:17;;;;;;;13.70;8.40;;;;;;;22.88;100.00;94542.16;5020527;28;20120;-92
2022/07/25 03:35:43;;;;;;;16.10;8.85;;;;;;;22.96;100.00;94537.78;5036803;28;20412;-93
2022/07/25 03:38:09;;;;;;;18.55;8.18;;;;;;;22.83;100.00;94537.03;5020336;28;20155;-92
2022/07/25 03:40:35;;;;;;;12.55;8.57;;;;;;;22.83;100.00;94539.72;5036549;28;20029;-92
2022/07/25 03:43:01;;;;;;;12.10;8.05;;;;;;;22.86;100.00;94543.59;5036469;28;20049;-92
2022/07/25 03:45:26;;;;;;;18.75;8.38;;;;;;;22.85;100.00;94542.81;5036851;28;20120;-92
2022/07/25 03:47:52;;;;;;;15.77;8.25;;;;;;;23.06;100.00;94536.47;5020187;28;20095;-92
2022/07/25 03:50:17;;;;;;;18.30;9.57;;;;;;;23.23;100.00;94545.28;5036332;28;20044;-92
2022/07/25 03:52:42;;;;;;;12.82;8.63;;;;;;;23.26;100.00;94542.75;5019908;28;20394;-91
2022/07/25 03:55:09;;;;;;;18.90;8.52;;;;;;;23.41;100.00;94553.78;5018688;28;20025;-89
2022/07/25 03:57:35;;;;;;;13.40;8.95;;;;;;;23.36;100.00;94554.03;4999994;28;20482;-86
2022/07/25 04:00:11;;;;;;;;;;;;;;;;;;;;;
2022/07/25 04:03:10;;;;;;;18.85;8.98;;;;;;;23.29;100.00;94552.72;5015881;28;20022;-88
2022/07/25 04:05:47;;;;;;;;;;;;;;;;;;;;;
2022/07/25 04:08:16;;;;;;;14.00;8.40;;;;;;;22.98;100.00;94556.09;5017400;28;20022;-87
2022/07/25 04:10:41;;;;;;;17.60;9.65;;;;;;;22.84;100.00;94554.63;5017383;28;20108;-86
2022/07/25 04:13:07;;;;;;;12.55;8.50;;;;;;;22.88;100.00;94557.38;4999547;28;20052;-86
2022/07/25 04:15:32;;;;;;;13.85;8.43;;;;;;;22.97;100.00;94560.69;4999771;28;20026;-86
2022/07/25 04:17:58;;;;;;;16.45;9.35;;;;;;;22.95;100.00;94552.22;5015818;28;20440;-86
2022/07/25 04:20:23;;;;;;;17.33;8.48;;;;;;;23.03;100.00;94555.88;4999655;28;20030;-86
2022/07/25 04:22:49;;;;;;;13.35;8.02;;;;;;;23.06;100.00;94549.06;5015602;28;20033;-86
2022/07/25 04:25:14;;;;;;;12.30;8.55;;;;;;;22.90;100.00;94557.06;5015971;28;20060;-87
2022/07/25 04:27:43;;;;;;;15.57;9.02;;;;;;;23.08;100.00;94550.28;5015968;28;20032;-86
2022/07/25 04:30:09;;;;;;;11.18;7.55;;;;;;;23.17;100.00;94558.13;5017205;28;20028;-86
2022/07/25 04:32:35;;;;;;;12.43;8.65;;;;;;;23.01;100.00;94553.53;5016778;28;20033;-86
2022/07/25 04:35:00;;;;;;;11.52;7.70;;;;;;;23.23;100.00;94555.97;4999061;28;20036;-86
2022/07/25 04:37:26;;;;;;;17.88;8.35;;;;;;;23.29;100.00;94557.28;5015894;28;20065;-86
2022/07/25 04:39:51;;;;;;;14.95;8.90;;;;;;;23.21;100.00;94558.22;5015406;28;20034;-85
2022/07/25 04:42:26;;;;;;;12.93;7.88;;;;;;;23.16;100.00;94561.91;5015660;28;20339;-86
2022/07/25 04:44:52;;;;;;;15.20;7.90;;;;;;;23.41;100.00;94559.13;5000315;28;20033;-86
2022/07/25 04:47:17;;;;;;;17.70;8.55;;;;;;;23.36;100.00;94562.81;4999442;28;20443;-86
2022/07/25 04:49:43;;;;;;;9.45;7.55;;;;;;;23.54;100.00;94557.91;5016083;28;20037;-86
2022/07/25 04:52:08;;;;;;;12.82;8.45;;;;;;;23.64;100.00;94553.16;5015444;28;20080;-86
2022/07/25 04:54:36;;;;;;;16.33;8.07;;;;;;;23.53;100.00;94558.25;5015300;28;20026;-86
2022/07/25 04:57:03;;;;;;;15.77;7.78;;;;;;;23.66;100.00;94559.72;4999184;28;20046;-86
2022/07/25 04:59:37;;;;;;;14.20;8.23;;;;;;;23.51;100.00;94561.25;5015449;28;20443;-87
2022/07/25 05:02:05;;;;;;;16.52;8.23;;;;;;;23.43;100.00;94554.97;5013370;28;20032;-86
2022/07/25 05:04:58;;;;;;;12.98;8.30;;;;;;;23.63;100.00;94551.59;5001773;28;20312;-87
2022/07/25 05:07:29;;;;;;;12.45;8.27;;;;;;;23.90;100.00;94559.84;5016558;28;20413;-86
2022/07/25 05:10:06;;;;;;;12.77;8.30;;;;;;;23.80;100.00;94556.56;4999782;28;20431;-86
2022/07/25 05:12:31;;;;;;;13.10;8.48;;;;;;;23.86;100.00;94557.88;5000798;28;20050;-88
2022/07/25 05:15:28;;;;;;;14.48;8.15;;;;;;;23.86;100.00;94552.53;5015399;28;20115;-88
2022/07/25 05:17:57;;;;;;;23.77;9.13;;;;;;;24.20;100.00;94548.66;5006624;28;20057;-88
2022/07/25 05:20:23;;;;;;;16.38;8.35;;;;;;;24.08;100.00;94560.28;5016532;28;20030;-88
2022/07/25 05:22:58;;;;;;;15.68;8.50;;;;;;;24.33;100.00;94555.47;5015323;28;20033;-88
2022/07/25 05:25:26;;;;;;;10.68;8.02;;;;;;;24.26;100.00;94558.75;5015454;28;20030;-88
2022/07/25 05:28:04;;;;;;;;;;;;;;;;;;;;;
2022/07/25 05:30:40;;;;;;;;;;;;;;;;;;;;;
2022/07/25 05:33:14;;;;;;;33.72;8.10;;;;;;;24.50;100.00;94565.00;5015090;28;20028;-88
2022/07/25 05:35:46;;;;;;;12.73;7.78;;;;;;;24.76;100.00;94558.25;5015910;28;20032;-88
2022/07/25 05:38:19;;;;;;;11.10;7.60;;;;;;;24.99;100.00;94558.28;5015291;28;20432;-87
2022/07/25 05:40:57;;;;;;;;;;;;;;;;;;;;;
2022/07/25 05:43:23;;;;;;;12.18;7.93;;;;;;;24.91;100.00;94561.19;5025614;28;20335;-86
2022/07/25 05:46:09;;;;;;;16.02;7.53;;;;;;;24.94;100.00;94563.16;5017597;28;20109;-87
2022/07/25 05:49:07;;;;;;;10.00;7.35;;;;;;;25.20;100.00;94564.41;4998840;28;20394;-87
2022/07/25 05:52:13;;;;;;;13.30;7.22;;;;;;;25.29;100.00;94564.91;5009386;28;20431;-87
2022/07/25 05:55:18;;;;;;;14.88;7.93;;;;;;;25.10;100.00;94568.41;5030438;28;20112;-87
2022/07/25 05:57:44;;;;;;;10.02;7.15;;;;;;;25.32;100.00;94560.75;5020964;28;20026;-87
2022/07/25 06:00:10;;;;;;;13.32;8.07;;;;;;;25.37;100.00;94565.81;5021333;28;20323;-86
2022/07/25 06:02:35;;;;;;;12.65;8.10;;;;;;;25.20;100.00;94562.47;5017782;28;20030;-86
2022/07/25 06:05:01;;;;;;;12.27;7.45;;;;;;;25.39;100.00;94568.91;5018130;28;20025;-86
2022/07/25 06:07:26;;;;;;;11.32;7.50;;;;;;;25.16;100.00;94564.31;5018954;28;20029;-85
2022/07/25 06:09:51;;;;;;;16.92;8.13;;;;;;;25.34;100.00;94564.63;5018964;28;20034;-87
2022/07/25 06:12:17;;;;;;;15.90;7.80;;;;;;;25.57;100.00;94557.75;5019129;28;20410;-86
2022/07/25 06:14:42;;;;;;;10.23;7.22;;;;;;;25.90;100.00;94556.31;5017801;28;20053;-87
2022/07/25 06:17:08;;;;;;;12.27;7.70;;;;;;;26.00;100.00;94553.00;5002059;28;20128;-86
2022/07/25 06:19:33;;;;;;;12.13;7.63;;;;;;;26.13;100.00;94560.88;5017921;28;20022;-86
2022/07/25 06:22:02;;;;;;;9.40;7.65;;;;;;;26.31;100.00;94555.72;5017663;28;20026;-86
2022/07/25 06:24:27;;;;;;;14.50;7.45;;;;;;;26.37;100.00;94556.97;5018910;28;20072;-86
2022/07/25 06:26:53;;;;;;;13.43;7.82;;;;;;;26.63;100.00;94556.13;5017721;28;20029;-85
2022/07/25 06:29:21;;;;;;;13.57;7.40;;;;;;;26.81;100.00;94555.56;5017652;28;20018;-86
2022/07/25 06:31:47;;;;;;;14.77;8.25;;;;;;;26.94;100.00;94556.88;5017691;28;20466;-86
2022/07/25 06:34:12;;;;;;;12.05;8.15;;;;;;;26.96;100.00;94548.47;5018621;28;20025;-86
2022/07/25 06:37:04;;;;;;;;;;;;;;;;;;;;;
2022/07/25 06:39:30;;;;;;;10.63;7.35;;;;;;;27.05;100.00;94545.47;5018594;28;20021;-86
2022/07/25 06:42:06;;;;;;;;;;;;;;;;;;;;;
2022/07/25 06:44:35;;;;;;;11.50;8.00;;;;;;;26.93;100.00;94541.91;5017405;28;20025;-86
2022/07/25 06:47:11;;;;;;;;;;;;;;;;;;;;;
2022/07/25 06:49:58;;;;;;;;;;;;;;;;;;;;;
2022/07/25 06:52:29;;;;;;;19.33;7.65;;;;;;;27.36;100.00;94546.91;5017394;28;20030;-86
2022/07/25 06:54:59;;;;;;;13.27;7.32;;;;;;;27.10;100.00;94545.13;5017115;28;20400;-86
2022/07/25 06:57:25;;;;;;;13.88;7.15;;;;;;;27.63;100.00;94546.78;5016987;28;20036;-90
2022/07/25 06:59:53;;;;;;;13.27;7.68;;;;;;;27.75;100.00;94544.91;5001108;28;20026;-90
2022/07/25 07:02:18;;;;;;;12.68;7.43;;;;;;;27.38;100.00;94544.63;5001230;28;20035;-90
2022/07/25 07:04:44;;;;;;;12.52;7.30;;;;;;;27.65;100.00;94546.38;5016983;28;20026;-89
2022/07/25 07:07:09;;;;;;;13.80;7.47;;;;;;;27.25;100.00;94548.72;5001241;28;20021;-90
2022/07/25 07:09:35;;;;;;;12.50;7.28;;;;;;;27.84;100.00;94547.31;5016981;28;20057;-90
2022/07/25 07:12:00;;;;;;;16.15;7.05;;;;;;;27.74;100.00;94543.38;5016978;28;20101;-91
2022/07/25 07:14:26;;;;;;;12.80;7.18;;;;;;;28.05;100.00;94542.03;5000662;28;20026;-90
2022/07/25 07:16:51;;;;;;;12.57;7.53;;;;;;;27.93;100.00;94539.66;5018014;28;20113;-90
2022/07/25 07:19:17;;;;;;;14.55;7.30;;;;;;;28.18;100.00;94542.50;5000657;28;20025;-90
2022/07/25 07:21:42;;;;;;;17.27;7.40;;;;;;;28.18;100.00;94541.75;5016699;28;20068;-90
2022/07/25 07:24:08;;;;;;;12.00;7.68;;;;;;;28.20;100.00;94539.47;5016648;28;20029;-90
2022/07/25 07:26:33;;;;;;;17.77;7.55;;;;;;;28.66;100.00;94532.72;5000237;28;20036;-90
2022/07/25 07:28:59;;;;;;;14.93;6.32;;;;;;;28.87;100.00;94540.13;5016670;28;20029;-89
2022/07/25 07:31:25;;;;;;;13.80;7.45;;;;;;;28.81;100.00;94540.88;5000875;28;20026;-90
2022/07/25 07:33:50;;;;;;;20.70;7.25;;;;;;;28.63;100.00;94541.56;5000724;28;20053;-90
2022/07/25 07:36:16;;;;;;;16.33;7.65;;;;;;;28.84;100.00;94540.13;5016678;28;20025;-90
2022/07/25 07:38:43;;;;;;;17.98;7.75;;;;;;;29.19;100.00;94535.94;5016605;28;20030;-89
2022/07/25 07:41:08;;;;;;;15.80;7.47;;;;;;;29.21;100.00;94529.00;5000365;28;20041;-89
2022/07/25 07:43:34;;;;;;;13.60;6.60;;;;;;;29.25;99.15;94522.84;5017806;28;20340;-89
2022/07/25 07:46:11;;;;;;;21.00;6.97;;;;;;;29.33;98.04;94533.25;5016314;28;20650;-89
2022/07/25 07:48:37;;;;;;;19.60;7.25;;;;;;;29.63;94.06;94531.34;5017731;28;20145;-90
2022/07/25 07:51:03;;;;;;;15.20;7.18;;;;;;;29.51;95.65;94531.75;5016180;28;20113;-90
2022/07/25 07:56:14;;;;;;;16.45;7.45;;;;;;;29.53;92.51;94532.91;5016699;28;20032;-90
2022/07/25 07:58:40;;;;;;;19.10;7.50;;;;;;;29.55;91.18;94527.09;5016103;28;20026;-90
2022/07/25 08:01:06;;;;;;;15.38;7.47;;;;;;;29.80;91.15;94537.13;5016055;28;20045;-89
2022/07/25 08:03:31;;;;;;;20.80;7.03;;;;;;;29.54;93.80;94536.38;5017736;28;20029;-90
2022/07/25 08:05:57;;;;;;;12.10;6.88;;;;;;;29.73;89.88;94532.50;5016061;28;20037;-90
2022/07/25 08:08:22;;;;;;;12.82;6.75;;;;;;;30.09;86.85;94532.47;5016841;28;20113;-89
2022/07/25 08:10:48;;;;;;;13.05;6.70;;;;;;;30.30;83.37;94528.16;5017969;28;20025;-89
2022/07/25 08:13:18;;;;;;;13.50;6.55;;;;;;;29.99;84.60;94530.53;5015984;28;20030;-90
2022/07/25 08:15:46;;;;;;;20.48;7.47;;;;;;;30.26;85.35;94530.88;5015990;28;20065;-89
2022/07/25 08:18:11;;;;;;;18.48;7.45;;;;;;;30.17;86.01;94530.53;5017324;28;20069;-89
2022/07/25 08:20:37;;;;;;;17.45;7.63;;;;;;;30.42;84.12;94535.84;5017134;28;20033;-90
2022/07/25 08:23:03;;;;;;;13.13;6.72;;;;;;;30.25;83.52;94534.72;5015749;28;20053;-88
2022/07/25 08:25:30;;;;;;;9.95;6.28;;;;;;;30.43;84.23;94534.69;5015856;28;20037;-89
2022/07/25 08:27:56;;;;;;;13.45;6.68;;;;;;;30.52;81.45;94531.56;5016110;28;20033;-90
2022/07/25 08:30:21;;;;;;;13.65;7.18;;;;;;;30.31;80.43;94524.28;5015770;28;20486;-90
2022/07/25 08:32:53;;;;;;;15.48;6.65;;;;;;;30.02;79.88;94527.84;5015648;28;20077;-89
2022/07/25 08:35:20;;;;;;;12.82;6.85;;;;;;;30.32;79.33;94528.53;4999701;28;20072;-89
2022/07/25 08:37:46;;;;;;;16.60;7.03;;;;;;;30.44;78.60;94528.13;5015934;28;20038;-90
2022/07/25 08:40:12;;;;;;;11.45;6.32;;;;;;;30.49;78.36;94526.94;5015604;28;20451;-89
2022/07/25 08:42:38;;;;;;;16.15;7.25;;;;;;;30.60;76.76;94527.66;4999753;28;20124;-89
2022/07/25 08:45:05;;;;;;;10.23;7.03;;;;;;;30.94;75.65;94529.06;5016082;28;20088;-90
2022/07/25 08:47:31;;;;;;;14.07;7.25;;;;;;;30.81;70.69;94520.63;5016673;28;20026;-89
2022/07/25 08:49:57;;;;;;;12.07;7.97;;;;;;;30.54;68.84;94531.94;5017009;28;20037;-90
2022/07/25 08:52:23;;;;;;;10.52;7.05;;;;;;;30.75;69.81;94524.91;5016732;28;20343;-89
2022/07/25 08:54:49;;;;;;;14.43;6.80;;;;;;;31.26;69.89;94517.28;5015649;28;20030;-89
2022/07/25 08:57:16;;;;;;;12.50;7.40;;;;;;;30.94;67.35;94525.59;5015781;28;20033;-89
2022/07/25 08:59:42;;;;;;;18.95;7.68;;;;;;;31.00;67.37;94537.53;5015715;28;20129;-90
2022/07/25 09:02:09;;;;;;;12.43;7.28;;;;;;;30.68;69.47;94530.34;5015327;28;20037;-90
2022/07/25 09:04:36;;;;;;;12.38;7.13;;;;;;;30.64;71.18;94524.19;5015295;28;20371;-90
2022/07/25 09:07:04;;;;;;;11.57;6.97;;;;;;;31.20;69.13;94523.50;5015434;28;20029;-89
2022/07/25 09:09:31;;;;;;;13.45;7.45;;;;;;;30.97;67.62;94513.97;4999267;28;20051;-89
2022/07/25 09:11:57;;;;;;;13.85;6.20;;;;;;;31.36;67.48;94521.06;4999129;28;20041;-89
2022/07/25 09:14:23;;;;;;;14.75;7.05;;;;;;;31.09;68.68;94523.56;5016736;28;20030;-89
2022/07/25 09:16:49;;;;;;;15.40;7.00;;;;;;;31.15;65.71;94521.97;5015614;28;20037;-89
2022/07/25 09:19:19;;;;;;;15.10;7.70;;;;;;;31.02;65.21;94514.31;5017588;28;20025;-90
2022/07/25 09:21:57;;;;;;;10.10;7.35;;;;;;;31.37;65.97;94509.06;5018909;28;20343;-90
2022/07/25 09:24:23;;;;;;;11.85;7.15;;;;;;;31.46;64.46;94516.75;5018936;28;20022;-89
2022/07/25 09:26:51;;;;;;;15.05;7.03;;;;;;;31.80;64.88;94512.59;5019124;28;20052;-89
2022/07/25 09:29:22;;;;;;;12.60;7.40;;;;;;;31.63;64.33;94515.06;5002737;28;20347;-90
2022/07/25 09:31:54;;;;;;;11.38;6.60;;;;;;;31.35;64.11;94502.53;5019094;28;20037;-89
2022/07/25 09:34:39;;;;;;;13.40;6.85;;;;;;;31.45;62.68;94510.56;5002552;28;20057;-90
2022/07/25 09:37:11;;;;;;;12.77;7.53;;;;;;;31.66;61.91;94503.41;5018790;28;20036;-89
2022/07/25 09:39:43;;;;;;;13.43;6.65;;;;;;;31.78;61.27;94504.09;5018634;28;20026;-89
2022/07/25 09:42:24;;;;;;;13.30;6.78;;;;;;;32.06;58.94;94503.03;5002830;28;20030;-89
2022/07/25 09:45:04;;;;;;;13.13;6.75;;;;;;;31.46;61.88;94489.66;5019735;28;20343;-89
2022/07/25 09:47:31;;;;;;;12.05;6.72;;;;;;;32.14;60.11;94490.22;5018822;28;20347;-89
2022/07/25 09:49:56;;;;;;;12.85;6.68;;;;;;;32.07;59.57;94482.16;5018445;28;20044;-89
2022/07/25 09:52:22;;;;;;;12.40;6.93;;;;;;;32.21;59.84;94481.19;5018739;28;20435;-89
2022/07/25 09:54:48;;;;;;;11.15;7.00;;;;;;;32.35;58.64;94489.22;5018535;28;20033;-89
2022/07/25 09:57:13;;;;;;;11.00;6.63;;;;;;;32.48;58.39;94480.53;5002517;28;20030;-89
2022/07/25 09:59:44;;;;;;;13.23;6.85;;;;;;;32.13;58.37;94484.00;5019682;28;20029;-89
2022/07/25 10:02:28;;;;;;;10.23;6.85;;;;;;;31.68;59.73;94479.41;5018612;28;20435;-89
2022/07/25 10:05:09;;;;;;;15.02;6.63;;;;;;;32.13;58.74;94483.22;5019246;28;20026;-90
2022/07/25 10:07:45;;;;;;;12.30;7.03;;;;;;;32.27;58.83;94471.47;5019637;28;20033;-89
2022/07/25 10:10:31;;;;;;;11.55;6.30;;;;;;;32.26;58.00;94467.97;5002380;28;20030;-89
2022/07/25 10:13:14;;;;;;;12.00;6.47;;;;;;;32.59;59.47;94473.03;5018243;28;20033;-90
2022/07/25 10:15:49;;;;;;;;;;;;;;;32.62;56.77;94474.91;5018800;28;20030;-90
2022/07/25 10:18:17;;;;;;;16.25;7.38;;;;;;;32.71;56.31;94468.97;5017990;28;19917;-89
2022/07/25 10:20:44;;;;;;;12.68;6.70;;;;;;;32.89;56.79;94470.69;5017527;28;20037;-89
2022/07/25 10:23:36;;;;;;;9.45;6.55;;;;;;;32.72;54.72;94465.88;5020407;28;20353;-89
2022/07/25 10:26:12;;;;;;;16.20;7.60;;;;;;;32.54;56.02;94462.63;5034899;28;20041;-90
2022/07/25 10:28:48;;;;;;;11.63;6.95;;;;;;;32.50;55.46;94467.34;5037554;28;20112;-90
2022/07/25 10:31:21;;;;;;;11.77;7.38;;;;;;;32.36;55.72;94460.16;5036973;28;20041;-90
2022/07/25 10:33:53;;;;;;;10.60;6.63;;;;;;;32.50;55.35;94459.22;5037517;28;20021;-91
2022/07/25 10:36:52;;;;;;;14.70;6.93;;;;;;;32.63;56.29;94454.00;5037421;28;20029;-90
2022/07/25 10:39:22;;;;;;;9.63;7.25;;;;;;;32.80;55.56;94454.94;5032652;28;20033;-89
2022/07/25 10:42:03;;;;;;;13.02;6.78;;;;;;;32.85;54.73;94449.03;5037500;28;20124;-89
2022/07/25 10:44:43;;;;;;;16.58;7.50;;;;;;;32.53;56.08;94451.00;5037532;28;20029;-89
2022/07/25 10:47:10;;;;;;;16.80;7.30;;;;;;;32.52;57.07;94441.34;5021019;28;20025;-89
2022/07/25 10:49:56;;;;;;;17.13;7.85;;;;;;;32.66;56.80;94437.69;5037725;28;20025;-90
2022/07/25 10:52:27;;;;;;;11.27;7.72;;;;;;;32.38;57.29;94445.03;5021339;28;20056;-91
2022/07/25 10:54:58;;;;;;;12.90;7.30;;;;;;;32.68;57.22;94434.53;5038089;28;20025;-89
2022/07/25 10:57:47;;;;;;;12.45;6.93;;;;;;;32.48;56.98;94426.28;5037358;28;20107;-90
2022/07/25 11:01:12;;;;;;;;;;;;;;;;;;;;;
2022/07/25 11:03:43;;;;;;;14.25;7.85;;;;;;;32.22;56.74;94423.16;5027379;28;20057;-89
2022/07/25 11:06:13;;;;;;;13.50;7.05;;;;;;;32.89;55.84;94425.31;5021201;28;20370;-90
2022/07/25 11:08:58;;;;;;;;;;;;;;;;;;;;;
2022/07/25 11:11:39;;;;;;;11.55;7.15;;;;;;;33.29;54.48;94422.03;5036889;28;20022;-89
2022/07/25 11:14:12;;;;;;;16.85;8.05;;;;;;;33.52;53.93;94423.19;5036947;28;20477;-89
2022/07/25 11:16:38;;;;;;;10.27;7.03;;;;;;;33.12;53.91;94424.59;5038072;28;20116;-88
2022/07/25 11:19:04;;;;;;;14.00;7.38;;;;;;;32.73;55.32;94409.69;5037346;28;20132;-90
2022/07/25 11:21:49;;;;;;;14.32;7.00;;;;;;;32.43;55.40;94414.00;5020143;28;20029;-90
2022/07/25 11:24:15;;;;;;;16.50;7.03;;;;;;;32.48;56.06;94416.22;5036516;28;20029;-89
2022/07/25 11:27:01;;;;;;;10.05;6.95;;;;;;;32.13;58.00;94415.47;5020375;28;20040;-90
2022/07/25 11:29:27;;;;;;;13.57;7.15;;;;;;;32.36;55.87;94417.56;5020803;28;20025;-90
2022/07/25 11:32:20;;;;;;;13.68;6.60;;;;;;;32.21;55.98;94411.53;5037514;28;20316;-89
2022/07/25 11:34:48;;;;;;;15.75;6.93;;;;;;;32.96;54.91;94400.06;5013414;28;20045;-90
2022/07/25 11:37:19;;;;;;;14.77;6.90;;;;;;;33.26;53.57;94403.81;5020281;28;20112;-91
2022/07/25 11:39:47;;;;;;;13.93;7.35;;;;;;;33.44;53.93;94408.97;5036302;28;20350;-90
2022/07/25 11:42:16;;;;;;;12.35;7.32;;;;;;;32.65;53.87;94403.59;5036909;28;20328;-90
2022/07/25 11:45:29;;;;;;;12.02;7.68;;;;;;;33.09;53.44;94397.53;5036790;28;20025;-90
2022/07/25 11:48:06;;;;;;;15.30;7.13;;;;;;;33.71;52.95;94389.09;5036022;28;20041;-90
2022/07/25 11:50:34;;;;;;;9.25;6.65;;;;;;;33.72;52.65;94389.88;5036247;28;20159;-91
2022/07/25 11:53:30;;;;;;;;;;;;;;;;;;;;;